Time;durP1;ratioP1;P1;durP2;ratioP2;P2;SDS_P1;SDS_P2;PMS_P1;PMS_P2;Temp;Humidity;BMP_temperature;BMP_pressure;BME280_temperature;BME280_humidity;BME280_pressure;Samples;Min_cycle;Max_cycle;Signal;HPM_P1;HPM_P2
2022/03/27 00:01:51;;;;;;;12.40;6.40;;;;;;;8.17;83.51;103087.97;5053104;28;20496;-81
2022/03/27 00:04:16;;;;;;;14.33;7.13;;;;;;;8.23;83.92;103090.13;5018597;28;20033;-82
2022/03/27 00:06:41;;;;;;;10.93;6.53;;;;;;;8.18;83.74;103095.09;5053559;28;20041;-81
2022/03/27 00:09:07;;;;;;;10.80;6.47;;;;;;;8.23;84.34;103109.03;5041973;28;20042;-81
2022/03/27 00:11:33;;;;;;;11.83;6.40;;;;;;;8.11;84.36;103089.41;5029080;28;20063;-81
2022/03/27 00:14:03;;;;;;;12.93;6.80;;;;;;;8.03;84.51;103091.94;5038475;28;20099;-82
2022/03/27 00:16:29;;;;;;;13.20;6.77;;;;;;;7.94;84.11;103068.47;5040433;28;20072;-81
2022/03/27 00:18:55;;;;;;;16.10;7.07;;;;;;;7.91;84.57;103064.25;5037304;28;20036;-81
2022/03/27 00:21:22;;;;;;;13.70;7.20;;;;;;;7.86;84.50;103073.72;5016935;28;20116;-81
2022/03/27 00:23:49;;;;;;;12.33;7.47;;;;;;;7.83;84.81;103069.47;5045496;28;20033;-81
2022/03/27 00:26:15;;;;;;;11.77;6.63;;;;;;;7.83;84.59;103063.22;5033891;28;20076;-81
2022/03/27 00:28:42;;;;;;;11.63;6.87;;;;;;;7.81;84.60;103071.47;5032803;28;20082;-81
2022/03/27 00:31:10;;;;;;;12.90;6.50;;;;;;;7.80;84.84;103069.75;5052043;28;20037;-81
2022/03/27 00:33:37;;;;;;;15.97;7.77;;;;;;;7.72;85.11;103065.03;5044541;28;20409;-81
2022/03/27 00:36:08;;;;;;;12.63;7.00;;;;;;;7.65;85.36;103061.19;5033550;28;20469;-81
2022/03/27 00:38:34;;;;;;;12.80;6.73;;;;;;;7.65;85.20;103065.75;5052213;28;20033;-81
2022/03/27 00:41:01;;;;;;;12.17;7.40;;;;;;;7.66;85.06;103062.06;5060220;28;20110;-81
2022/03/27 00:43:27;;;;;;;15.33;7.37;;;;;;;7.61;85.43;103062.44;5037360;28;20037;-81
2022/03/27 00:45:53;;;;;;;13.00;7.43;;;;;;;7.69;85.58;103088.75;5039977;28;20047;-81
2022/03/27 00:48:20;;;;;;;13.30;7.20;;;;;;;7.64;85.90;103066.72;5040843;28;20194;-82
2022/03/27 00:50:48;;;;;;;13.97;6.83;;;;;;;7.72;85.24;103100.13;5072692;28;20384;-81
2022/03/27 00:53:14;;;;;;;11.10;6.57;;;;;;;7.52;84.61;103064.16;5066190;28;20041;-81
2022/03/27 00:55:40;;;;;;;9.90;6.13;;;;;;;7.43;84.43;103068.50;5035861;28;20893;-81
2022/03/27 00:58:06;;;;;;;10.73;6.17;;;;;;;7.41;84.21;103073.19;5053242;28;20383;-82
2022/03/27 01:00:37;;;;;;;10.43;6.87;;;;;;;7.26;84.34;103061.91;5037251;28;20565;-81
2022/03/27 01:03:06;;;;;;;11.37;6.87;;;;;;;7.33;85.27;103091.03;5051970;28;20376;-81
2022/03/27 01:05:32;;;;;;;12.10;6.97;;;;;;;7.10;85.62;103065.09;5037090;28;20033;-81
2022/03/27 01:08:04;;;;;;;11.77;7.43;;;;;;;7.08;86.59;103058.13;5056121;28;20405;-82
2022/03/27 01:10:29;;;;;;;12.83;8.37;;;;;;;7.19;87.21;103078.75;5038944;28;20041;-82
2022/03/27 01:12:55;;;;;;;13.80;7.37;;;;;;;7.03;86.92;103072.03;5015952;28;20064;-81
2022/03/27 01:15:30;;;;;;;15.20;7.53;;;;;;;7.12;87.34;103085.69;5066346;28;20032;-82
2022/03/27 01:17:56;;;;;;;14.20;7.60;;;;;;;7.00;87.32;103072.28;5015370;28;20047;-82
2022/03/27 01:20:29;;;;;;;14.40;7.67;;;;;;;7.05;87.68;103080.81;5033638;28;20045;-81
2022/03/27 01:22:55;;;;;;;12.97;7.77;;;;;;;6.91;88.03;103057.75;5048446;28;20067;-81
2022/03/27 01:25:21;;;;;;;15.53;8.23;;;;;;;6.97;88.45;103071.69;5033827;28;20041;-81
2022/03/27 01:27:47;;;;;;;12.80;8.23;;;;;;;6.91;88.36;103060.47;5032927;28;20042;-81
2022/03/27 01:30:12;;;;;;;15.30;9.10;;;;;;;6.98;88.54;103073.41;5048621;28;20100;-81
2022/03/27 01:32:38;;;;;;;15.17;8.90;;;;;;;6.85;88.82;103052.88;5040563;28;20053;-81
2022/03/27 01:35:04;;;;;;;14.67;9.10;;;;;;;6.91;89.05;103059.63;5033521;28;20044;-82
2022/03/27 01:37:29;;;;;;;17.53;9.43;;;;;;;7.06;89.24;103095.16;5039277;28;20416;-81
2022/03/27 01:39:55;;;;;;;20.40;9.60;;;;;;;6.75;89.11;103046.63;5028079;28;20033;-81
2022/03/27 01:42:20;;;;;;;14.90;8.93;;;;;;;6.85;89.48;103070.91;5056934;28;20048;-81
2022/03/27 01:44:45;;;;;;;16.27;9.63;;;;;;;6.84;89.78;103079.97;5070661;28;20111;-82
2022/03/27 01:47:11;;;;;;;14.77;9.17;;;;;;;6.80;89.94;103070.44;5059356;28;20437;-82
2022/03/27 01:49:36;;;;;;;16.63;9.67;;;;;;;6.74;90.21;103045.75;5071340;28;21950;-81
2022/03/27 01:52:02;;;;;;;17.60;9.87;;;;;;;6.76;90.50;103053.72;5025221;28;20045;-81
2022/03/27 01:54:28;;;;;;;19.00;10.07;;;;;;;6.72;90.46;103045.03;5021022;28;20373;-81
2022/03/27 01:56:53;;;;;;;18.37;10.63;;;;;;;6.69;90.44;103047.13;5018798;28;20045;-82
2022/03/27 01:59:22;;;;;;;17.57;11.03;;;;;;;6.78;91.29;103050.88;5068699;28;20079;-81
2022/03/27 02:01:47;;;;;;;19.13;12.50;;;;;;;6.76;91.66;103043.78;5039128;28;20068;-82
2022/03/27 02:04:13;;;;;;;17.80;11.97;;;;;;;7.04;92.50;103080.97;5049976;28;20132;-81
2022/03/27 02:06:39;;;;;;;23.67;13.70;;;;;;;6.93;92.88;103058.50;5039133;28;20029;-81
2022/03/27 02:09:05;;;;;;;22.43;13.60;;;;;;;6.92;93.19;103054.09;5019923;28;20179;-81
2022/03/27 02:11:31;;;;;;;22.70;14.43;;;;;;;7.00;93.53;103063.34;5036234;28;20104;-81
2022/03/27 02:13:56;;;;;;;21.30;14.07;;;;;;;7.03;93.60;103049.59;5036543;28;20122;-81
2022/03/27 02:16:22;;;;;;;23.50;14.97;;;;;;;7.13;94.06;103063.97;5035202;28;20025;-81
2022/03/27 02:18:47;;;;;;;24.63;16.13;;;;;;;7.19;93.77;103062.59;5026386;28;20036;-81
2022/03/27 02:21:13;;;;;;;22.87;15.57;;;;;;;7.26;94.35;103077.22;5049079;28;20024;-81
2022/03/27 02:23:38;;;;;;;24.43;15.97;;;;;;;7.24;94.01;103073.81;5023165;28;20036;-81
2022/03/27 02:26:05;;;;;;;25.20;16.33;;;;;;;7.18;93.69;103056.34;5022793;28;20083;-81
2022/03/27 02:28:31;;;;;;;24.83;16.50;;;;;;;7.25;93.98;103065.59;5036755;28;20041;-81
2022/03/27 02:30:56;;;;;;;23.57;17.17;;;;;;;7.19;94.06;103060.72;5035323;28;20425;-82
2022/03/27 02:33:22;;;;;;;23.87;16.57;;;;;;;7.34;94.05;103077.41;5044553;28;20077;-81
2022/03/27 02:35:48;;;;;;;24.63;16.87;;;;;;;7.45;94.16;103092.63;5034109;28;23103;-81
2022/03/27 02:38:13;;;;;;;24.97;17.07;;;;;;;7.50;94.08;103089.56;5054884;28;20037;-81
2022/03/27 02:40:40;;;;;;;23.13;16.20;;;;;;;7.33;93.97;103056.84;5019107;28;20138;-81
2022/03/27 02:43:06;;;;;;;24.70;16.63;;;;;;;7.47;93.75;103074.50;5044376;28;20098;-81
2022/03/27 02:45:32;;;;;;;23.27;16.67;;;;;;;7.49;93.43;103072.50;5076051;28;20033;-81
2022/03/27 02:47:58;;;;;;;24.40;17.43;;;;;;;7.42;93.16;103069.50;5075257;28;20379;-81
2022/03/27 02:50:26;;;;;;;23.63;16.60;;;;;;;7.54;93.28;103089.13;5021588;28;20037;-81
2022/03/27 02:52:52;;;;;;;24.53;17.40;;;;;;;7.54;94.01;103094.53;5050387;28;20033;-82
2022/03/27 02:55:18;;;;;;;24.87;17.63;;;;;;;7.51;94.20;103085.88;5045785;28;20133;-81
2022/03/27 02:57:44;;;;;;;25.47;17.30;;;;;;;7.34;93.94;103058.53;5047501;28;20528;-82
2022/03/27 03:00:10;;;;;;;26.53;18.33;;;;;;;7.57;94.17;103091.53;5071903;28;20100;-81
2022/03/27 03:05:59;;;;;;;25.07;17.37;;;;;;;7.51;93.51;103058.91;5055214;28;20392;-81
2022/03/27 03:08:26;;;;;;;24.47;17.67;;;;;;;7.52;93.76;103061.44;5055609;28;20044;-82
2022/03/27 03:10:52;;;;;;;23.70;16.90;;;;;;;7.49;93.78;103053.59;5034448;28;20064;-81
2022/03/27 03:13:18;;;;;;;24.27;16.37;;;;;;;7.56;93.81;103064.69;5034260;28;20033;-82
2022/03/27 03:15:44;;;;;;;23.90;16.70;;;;;;;7.43;94.09;103057.72;5035353;28;20432;-81
2022/03/27 03:18:10;;;;;;;23.73;15.90;;;;;;;7.39;93.61;103050.03;5033954;28;20041;-81
2022/03/27 03:20:36;;;;;;;22.30;16.10;;;;;;;7.50;94.16;103067.97;5020095;28;20021;-81
2022/03/27 03:23:02;;;;;;;21.67;15.33;;;;;;;7.47;93.92;103052.91;5054386;28;20051;-81
2022/03/27 03:25:27;;;;;;;22.37;15.50;;;;;;;7.35;93.93;103035.97;5043604;28;20128;-81
2022/03/27 03:27:53;;;;;;;22.57;15.50;;;;;;;7.43;93.87;103046.06;5062304;28;20115;-81
2022/03/27 03:30:18;;;;;;;24.17;16.10;;;;;;;7.41;93.51;103037.25;5019702;28;20453;-81
2022/03/27 03:32:44;;;;;;;22.50;16.27;;;;;;;7.49;93.68;103056.31;5034534;28;20131;-81
2022/03/27 03:35:10;;;;;;;23.83;16.97;;;;;;;7.42;93.37;103036.28;5035010;28;20042;-81
2022/03/27 03:37:37;;;;;;;23.27;16.40;;;;;;;7.47;93.63;103050.22;5036763;28;20037;-81
2022/03/27 03:40:06;;;;;;;22.70;15.97;;;;;;;7.37;93.72;103038.53;5024974;28;20076;-81
2022/03/27 03:42:33;;;;;;;23.03;16.07;;;;;;;7.38;93.64;103042.94;5006772;28;20076;-81
2022/03/27 03:48:20;;;;;;;22.47;16.63;;;;;;;7.46;93.48;103059.28;5054923;28;20032;-81
2022/03/27 03:50:45;;;;;;;24.70;18.23;;;;;;;7.36;93.30;103034.13;5026979;28;20389;-82
2022/03/27 03:53:11;;;;;;;24.47;17.93;;;;;;;7.63;93.70;103073.09;5055482;28;20503;-82
2022/03/27 03:55:37;;;;;;;24.40;17.57;;;;;;;7.60;93.51;103069.72;5044391;28;20037;-80
2022/03/27 03:58:03;;;;;;;26.13;18.23;;;;;;;7.37;93.49;103035.81;5035417;28;20033;-81
2022/03/27 04:00:28;;;;;;;23.93;18.07;;;;;;;7.42;93.76;103039.84;5052236;28;20048;-80
2022/03/27 04:02:54;;;;;;;25.13;17.97;;;;;;;7.32;93.63;103032.72;5054244;28;20037;-81
2022/03/27 04:05:20;;;;;;;25.53;17.80;;;;;;;7.38;93.54;103048.31;5049052;28;20396;-81
2022/03/27 04:07:45;;;;;;;25.27;17.70;;;;;;;7.47;94.00;103055.59;5059586;28;20046;-81
2022/03/27 04:10:11;;;;;;;25.20;17.73;;;;;;;7.44;93.83;103053.19;5023674;28;20075;-81
2022/03/27 04:12:36;;;;;;;26.13;18.50;;;;;;;7.45;93.77;103057.56;5045678;28;20069;-81
2022/03/27 04:15:05;;;;;;;27.53;19.57;;;;;;;7.32;93.94;103038.94;5029700;28;20045;-80
2022/03/27 04:17:31;;;;;;;27.50;19.03;;;;;;;7.33;93.96;103024.47;5047982;28;20080;-81
2022/03/27 04:19:56;;;;;;;25.73;18.47;;;;;;;7.50;93.93;103051.78;5019178;28;20059;-82
2022/03/27 04:22:21;;;;;;;25.30;19.13;;;;;;;7.59;93.86;103068.00;5042166;28;20041;-82
2022/03/27 04:24:47;;;;;;;26.60;19.60;;;;;;;7.35;93.73;103029.72;5042861;28;20438;-81
2022/03/27 04:27:13;;;;;;;28.57;20.43;;;;;;;7.48;94.13;103054.63;5041684;28;20050;-81
2022/03/27 04:29:38;;;;;;;25.03;19.27;;;;;;;7.32;94.23;103027.31;5038110;28;20040;-81
2022/03/27 04:32:04;;;;;;;26.40;20.37;;;;;;;7.39;94.06;103036.56;5036920;28;20103;-81
2022/03/27 04:34:30;;;;;;;27.00;19.70;;;;;;;7.40;94.03;103043.66;5041468;28;20073;-81
2022/03/27 04:36:55;;;;;;;26.73;19.73;;;;;;;7.58;93.83;103079.78;5039537;28;20049;-81
2022/03/27 04:39:22;;;;;;;27.50;20.40;;;;;;;7.50;93.90;103055.31;5035517;28;20049;-81
2022/03/27 04:41:48;;;;;;;28.97;20.47;;;;;;;7.44;93.91;103058.59;5052269;28;20349;-81
2022/03/27 04:44:13;;;;;;;27.90;20.63;;;;;;;7.31;93.74;103031.00;5053549;28;20037;-81
2022/03/27 04:46:39;;;;;;;29.10;20.57;;;;;;;7.26;93.47;103044.88;5040626;28;20045;-81
2022/03/27 04:49:04;;;;;;;28.60;20.53;;;;;;;7.21;94.05;103045.28;5055585;28;20380;-81
2022/03/27 04:51:30;;;;;;;28.17;20.27;;;;;;;7.18;94.06;103050.97;5044167;28;20108;-80
2022/03/27 04:53:56;;;;;;;28.37;19.40;;;;;;;7.18;93.93;103050.97;5019668;28;20502;-81
2022/03/27 04:56:22;;;;;;;26.87;19.17;;;;;;;7.20;93.73;103058.91;5039715;28;20068;-82
2022/03/27 04:58:47;;;;;;;26.13;17.93;;;;;;;7.22;93.55;103065.88;5053586;28;20045;-82
2022/03/27 05:01:13;;;;;;;26.27;18.03;;;;;;;7.22;93.56;103065.00;5035851;28;20025;-81
2022/03/27 05:03:39;;;;;;;24.63;17.27;;;;;;;7.11;93.27;103052.47;5016198;28;20133;-81
2022/03/27 05:06:04;;;;;;;25.77;17.60;;;;;;;7.12;93.27;103058.72;5042748;28;20029;-82
2022/03/27 05:08:29;;;;;;;25.13;16.47;;;;;;;7.19;93.22;103082.31;5053055;28;20052;-81
2022/03/27 05:10:55;;;;;;;26.43;16.10;;;;;;;7.22;92.65;103100.94;5039282;28;20083;-80
2022/03/27 05:13:21;;;;;;;25.73;15.83;;;;;;;7.05;92.99;103079.97;5032266;28;20493;-81
2022/03/27 05:15:47;;;;;;;27.17;16.03;;;;;;;6.88;93.06;103074.22;5046431;28;20052;-82
2022/03/27 05:18:12;;;;;;;26.80;16.23;;;;;;;6.87;93.23;103080.56;5042085;28;20567;-81
2022/03/27 05:20:40;;;;;;;28.10;17.07;;;;;;;6.90;93.51;103077.59;5035767;28;20033;-82
2022/03/27 05:23:05;;;;;;;27.93;16.83;;;;;;;6.85;93.44;103089.78;5034666;28;20037;-86
2022/03/27 05:25:39;;;;;;;27.90;17.57;;;;;;;6.74;93.78;103069.16;5034184;28;20086;-82
2022/03/27 05:28:05;;;;;;;28.80;17.80;;;;;;;6.74;93.53;103069.97;5062894;28;20041;-81
2022/03/27 05:30:31;;;;;;;30.40;18.17;;;;;;;6.79;93.82;103071.47;5062847;28;20044;-81
2022/03/27 05:32:56;;;;;;;29.87;18.17;;;;;;;6.78;93.98;103078.66;5047090;28;20077;-81
2022/03/27 05:35:23;;;;;;;29.17;18.10;;;;;;;6.70;93.97;103062.31;5040869;28;20129;-81
2022/03/27 05:37:50;;;;;;;31.23;18.33;;;;;;;6.84;94.36;103097.03;5031412;28;20040;-82
2022/03/27 05:40:18;;;;;;;31.07;18.10;;;;;;;6.77;94.46;103082.34;5041757;28;20038;-82
2022/03/27 05:42:44;;;;;;;30.07;18.40;;;;;;;6.66;94.32;103072.47;5049423;28;20039;-82
2022/03/27 05:45:10;;;;;;;31.00;18.57;;;;;;;6.63;94.34;103069.22;5048667;28;20116;-81
2022/03/27 05:47:41;;;;;;;32.20;18.30;;;;;;;6.66;94.68;103088.66;5043245;28;20063;-82
2022/03/27 05:50:08;;;;;;;32.37;20.07;;;;;;;6.61;95.16;103073.88;5017737;28;20034;-81
2022/03/27 05:52:34;;;;;;;32.93;19.13;;;;;;;6.72;95.37;103100.75;5033076;28;20056;-81
2022/03/27 05:54:59;;;;;;;33.27;19.63;;;;;;;6.68;95.21;103088.53;5036485;28;20040;-81
2022/03/27 05:57:25;;;;;;;33.50;20.60;;;;;;;6.59;95.17;103079.38;5059192;28;20037;-81
2022/03/27 05:59:50;;;;;;;34.10;19.93;;;;;;;6.68;95.25;103093.94;5039450;28;20034;-80
2022/03/27 06:02:16;;;;;;;34.87;20.93;;;;;;;6.66;95.51;103090.50;5028127;28;20037;-81
2022/03/27 06:04:42;;;;;;;35.50;19.57;;;;;;;6.59;95.43;103082.97;5040172;28;20033;-81
2022/03/27 06:07:10;;;;;;;35.63;21.00;;;;;;;6.73;95.40;103103.31;5032815;28;20421;-81
2022/03/27 06:09:36;;;;;;;36.40;21.30;;;;;;;6.71;95.35;103104.44;5032057;28;20068;-82
2022/03/27 06:12:03;;;;;;;36.10;21.00;;;;;;;6.56;95.41;103085.03;5051851;28;20477;-81
2022/03/27 06:18:30;;;;;;;35.97;20.43;;;;;;;6.84;95.29;103134.75;5042589;28;20372;-82
2022/03/27 06:20:56;;;;;;;39.38;21.13;;;;;;;6.73;95.42;103124.00;5036940;28;20569;-81
2022/03/27 06:23:21;;;;;;;38.80;21.43;;;;;;;6.55;95.56;103094.94;5041160;28;20135;-81
2022/03/27 06:25:47;;;;;;;36.23;20.97;;;;;;;6.72;95.64;103108.84;5022889;28;20041;-80
2022/03/27 06:28:12;;;;;;;36.57;20.83;;;;;;;6.74;95.42;103114.94;5033015;28;20083;-81
2022/03/27 06:30:38;;;;;;;37.83;21.57;;;;;;;6.80;95.45;103125.22;5018335;28;20037;-81
2022/03/27 06:33:04;;;;;;;40.13;20.70;;;;;;;6.70;95.51;103116.19;5042433;28;20082;-81
2022/03/27 06:35:30;;;;;;;39.17;21.97;;;;;;;6.86;95.37;103135.44;5070726;28;20060;-81
2022/03/27 06:37:56;;;;;;;38.00;21.57;;;;;;;6.75;95.80;103122.06;5055737;28;20029;-81
2022/03/27 06:40:21;;;;;;;37.90;21.10;;;;;;;6.74;95.26;103105.00;5056418;28;20025;-80
2022/03/27 06:42:47;;;;;;;37.27;21.60;;;;;;;6.75;95.04;103109.41;5058240;28;20048;-81
2022/03/27 06:45:15;;;;;;;38.27;21.30;;;;;;;6.78;94.94;103097.53;5057930;28;20041;-81
2022/03/27 06:47:43;;;;;;;34.73;19.33;;;;;;;6.81;94.38;103107.19;5075387;28;20044;-82
2022/03/27 06:50:09;;;;;;;33.83;18.20;;;;;;;6.88;94.21;103121.84;5058313;28;20357;-81
2022/03/27 06:52:35;;;;;;;36.53;20.37;;;;;;;6.86;94.18;103119.28;5067880;28;20108;-81
2022/03/27 06:55:02;;;;;;;34.53;20.33;;;;;;;7.05;94.00;103139.28;5045669;28;20028;-81
2022/03/27 06:57:32;;;;;;;34.10;19.97;;;;;;;6.92;94.04;103121.47;5069761;28;20507;-82
2022/03/27 07:05:26;;;;;;;32.07;18.33;;;;;;;6.98;93.33;103119.25;5030314;28;20384;-83
2022/03/27 07:07:52;;;;;;;32.53;19.10;;;;;;;6.99;92.89;103115.53;5013689;28;20288;-85
2022/03/27 07:10:18;;;;;;;31.20;18.70;;;;;;;7.12;92.91;103145.84;5028274;28;20052;-85
2022/03/27 07:12:44;;;;;;;31.13;18.93;;;;;;;7.15;92.62;103139.34;5035861;28;21518;-81
2022/03/27 07:15:10;;;;;;;31.27;19.03;;;;;;;7.08;92.50;103131.75;5051430;28;20036;-81
2022/03/27 07:17:44;;;;;;;31.47;18.73;;;;;;;7.04;92.39;103122.22;5037448;28;20028;-81
2022/03/27 07:20:10;;;;;;;31.47;18.47;;;;;;;6.97;91.63;103120.22;5033268;28;20435;-81
2022/03/27 07:22:35;;;;;;;30.03;18.53;;;;;;;7.09;91.93;103146.97;5019664;28;20504;-80
2022/03/27 07:25:00;;;;;;;28.40;17.40;;;;;;;6.97;92.06;103114.81;5038330;28;20033;-80
2022/03/27 07:27:26;;;;;;;29.67;17.97;;;;;;;6.99;91.56;103113.72;5038462;28;20037;-81
2022/03/27 07:29:51;;;;;;;29.57;18.03;;;;;;;6.95;91.88;103106.88;5034823;28;20045;-87
2022/03/27 07:32:16;;;;;;;29.83;18.33;;;;;;;6.89;91.83;103102.84;5029709;28;20541;-83
2022/03/27 07:34:42;;;;;;;26.77;16.70;;;;;;;7.04;91.52;103121.38;5030833;28;20336;-84
2022/03/27 07:37:08;;;;;;;27.33;17.07;;;;;;;7.04;91.42;103111.44;5033398;28;20037;-83
2022/03/27 07:39:34;;;;;;;28.33;16.57;;;;;;;7.09;90.83;103114.59;5028393;28;20044;-86
2022/03/27 07:42:00;;;;;;;28.70;17.13;;;;;;;7.15;90.60;103117.75;5029043;28;20485;-85
2022/03/27 07:44:25;;;;;;;28.37;16.70;;;;;;;7.18;90.42;103118.38;5027285;28;20119;-85
2022/03/27 07:46:52;;;;;;;26.80;15.43;;;;;;;7.34;90.15;103149.38;5029497;28;20048;-86
2022/03/27 07:49:19;;;;;;;26.77;16.17;;;;;;;7.14;89.79;103116.94;5031318;28;20094;-84
2022/03/27 07:51:44;;;;;;;28.23;16.87;;;;;;;7.14;89.39;103116.06;5012011;28;20045;-86
2022/03/27 07:54:09;;;;;;;27.13;16.70;;;;;;;7.33;90.10;103131.47;5035571;28;20049;-83
2022/03/27 07:56:36;;;;;;;27.93;17.03;;;;;;;7.33;90.18;103121.56;5023525;28;20127;-87
2022/03/27 07:59:02;;;;;;;28.27;17.63;;;;;;;7.30;89.69;103124.50;5012367;28;20041;-87
2022/03/27 08:01:28;;;;;;;28.83;17.73;;;;;;;7.47;89.02;103150.00;5030708;28;20044;-84
2022/03/27 08:03:56;;;;;;;26.93;17.70;;;;;;;7.30;89.60;103113.72;5030400;28;20191;-87
2022/03/27 08:06:22;;;;;;;28.97;18.17;;;;;;;7.49;89.23;103121.03;5024521;28;20048;-87
2022/03/27 08:08:48;;;;;;;28.33;17.63;;;;;;;7.65;88.96;103139.44;5034720;28;20041;-87
2022/03/27 08:11:14;;;;;;;29.30;18.57;;;;;;;7.56;88.89;103122.22;5029102;28;20084;-86
2022/03/27 08:13:40;;;;;;;29.57;18.17;;;;;;;7.60;88.64;103115.56;5030964;28;20053;-85
2022/03/27 08:16:05;;;;;;;28.40;17.20;;;;;;;7.65;88.97;103107.06;5006908;28;20226;-89
2022/03/27 08:18:32;;;;;;;28.87;18.00;;;;;;;7.72;87.88;103119.00;5030049;28;20152;-84
2022/03/27 08:20:57;;;;;;;28.17;18.17;;;;;;;7.75;86.85;103120.56;5030385;28;20388;-87
2022/03/27 08:23:22;;;;;;;26.83;17.17;;;;;;;7.73;86.55;103117.19;5028477;28;20057;-86
2022/03/27 08:28:32;;;;;;;29.30;16.92;;;;;;;7.58;85.96;103117.53;5029251;28;20549;-84
2022/03/27 08:30:58;;;;;;;28.50;18.00;;;;;;;7.55;86.21;103125.91;5031400;28;20033;-84
2022/03/27 08:33:23;;;;;;;27.63;18.13;;;;;;;7.50;85.80;103120.06;5028086;28;20049;-82
2022/03/27 08:35:49;;;;;;;26.90;17.53;;;;;;;7.57;86.69;103123.91;5038592;28;20028;-82
2022/03/27 08:38:16;;;;;;;28.23;17.70;;;;;;;7.63;86.63;103111.75;5050559;28;20047;-83
2022/03/27 08:40:44;;;;;;;25.90;16.90;;;;;;;7.67;86.39;103123.09;5037839;28;20528;-81
2022/03/27 08:43:58;;;;;;;27.87;17.07;;;;;;;8.01;86.04;103147.06;5024269;28;20033;-81
2022/03/27 08:46:28;;;;;;;25.00;16.70;;;;;;;7.82;84.90;103112.78;5031654;28;20064;-82
2022/03/27 08:49:00;;;;;;;25.07;16.60;;;;;;;7.97;84.24;103129.44;5032748;28;20111;-88
2022/03/27 08:51:25;;;;;;;27.33;16.90;;;;;;;8.12;84.03;103141.59;5009647;28;20052;-88
2022/03/27 08:54:05;;;;;;;26.77;17.57;;;;;;;8.16;84.70;103134.91;5038196;28;20420;-92
2022/03/27 08:56:33;;;;;;;27.27;17.63;;;;;;;8.11;83.88;103126.38;5021916;28;20040;-81
2022/03/27 08:59:05;;;;;;;28.47;17.93;;;;;;;7.93;83.17;103120.78;5024824;28;20418;-87
2022/03/27 09:01:31;;;;;;;26.67;17.90;;;;;;;8.12;83.71;103128.06;5028852;28;20127;-82
2022/03/27 09:03:57;;;;;;;25.53;17.50;;;;;;;8.14;82.92;103123.38;5028285;28;20056;-88
2022/03/27 09:06:25;;;;;;;26.47;17.30;;;;;;;8.08;83.24;103127.50;5028704;28;20068;-87
2022/03/27 09:08:53;;;;;;;24.80;17.00;;;;;;;8.12;82.94;103125.38;5030281;28;20077;-91
2022/03/27 09:11:19;;;;;;;27.13;18.10;;;;;;;8.06;82.37;103121.38;5030675;28;20090;-83
2022/03/27 09:13:49;;;;;;;25.60;17.37;;;;;;;8.30;82.68;103128.25;5018721;28;20071;-87
2022/03/27 09:16:15;;;;;;;27.27;18.53;;;;;;;8.39;82.38;103129.22;5028016;28;20057;-88
2022/03/27 09:18:48;;;;;;;27.20;17.77;;;;;;;8.45;82.61;103117.91;5028344;28;20056;-83
2022/03/27 09:21:20;;;;;;;27.70;19.10;;;;;;;8.72;82.10;103130.69;5032369;28;20547;-84
2022/03/27 09:23:59;;;;;;;25.20;17.53;;;;;;;9.04;81.61;103131.34;5020808;28;20048;-82
2022/03/27 09:26:26;;;;;;;26.83;17.73;;;;;;;9.38;79.52;103138.97;5034992;28;20766;-83
2022/03/27 09:28:54;;;;;;;24.63;17.27;;;;;;;9.76;77.87;103121.72;5034459;28;20037;-88
2022/03/27 09:31:26;;;;;;;24.53;17.47;;;;;;;10.01;76.20;103119.28;5015979;28;20064;-84
2022/03/27 09:33:56;;;;;;;25.83;17.50;;;;;;;10.35;76.24;103118.66;5021057;28;20052;-88
2022/03/27 09:36:29;;;;;;;24.47;17.47;;;;;;;10.97;72.82;103145.78;5020006;28;20050;-84
2022/03/27 09:39:07;;;;;;;23.50;16.70;;;;;;;11.49;74.35;103144.06;5007281;28;20124;-85
2022/03/27 09:41:39;;;;;;;22.17;15.60;;;;;;;11.73;68.33;103124.31;5010839;28;20080;-85
2022/03/27 09:44:10;;;;;;;23.73;16.23;;;;;;;11.94;68.75;103104.91;4987164;28;20056;-87
2022/03/27 09:46:59;;;;;;;22.57;15.60;;;;;;;12.47;68.56;103099.22;5026875;28;20038;-83
2022/03/27 09:49:30;;;;;;;20.67;15.50;;;;;;;13.02;66.14;103132.19;4988360;28;20424;-89
2022/03/27 09:52:17;;;;;;;24.33;15.63;;;;;;;13.40;65.41;103129.75;5005711;28;20133;-83
2022/03/27 09:54:56;;;;;;;21.00;15.10;;;;;;;13.66;65.06;103107.69;4992899;28;20042;-87
2022/03/27 09:57:34;;;;;;;20.47;15.20;;;;;;;13.74;61.42;103091.31;4993197;28;20471;-85
2022/03/27 10:00:15;;;;;;;19.03;14.07;;;;;;;14.18;60.50;103103.47;5006528;28;20046;-83
2022/03/27 10:02:42;;;;;;;19.87;14.53;;;;;;;14.41;59.83;103097.19;5012859;28;20033;-87
2022/03/27 10:05:10;;;;;;;19.67;13.73;;;;;;;14.75;58.21;103115.00;5014605;28;20554;-82
2022/03/27 10:07:56;;;;;;;20.63;14.57;;;;;;;14.43;60.02;103076.88;5000244;28;20359;-88
2022/03/27 10:10:24;;;;;;;19.60;14.60;;;;;;;14.30;58.08;103076.66;5018508;28;20042;-82
2022/03/27 10:12:52;;;;;;;21.10;13.47;;;;;;;15.07;58.36;103091.16;5011405;28;20155;-82
2022/03/27 10:15:57;;;;;;;18.77;13.83;;;;;;;16.08;59.17;103104.28;5015323;28;20038;-83
2022/03/27 10:18:23;;;;;;;17.52;13.10;;;;;;;16.27;52.44;103080.91;5019811;28;20033;-83
2022/03/27 10:24:33;;;;;;;17.70;13.30;;;;;;;16.79;51.06;103070.59;5018110;28;20072;-85
2022/03/27 10:27:02;;;;;;;17.03;12.50;;;;;;;16.79;48.25;103065.97;5008588;28;20030;-87
2022/03/27 10:29:28;;;;;;;16.33;11.93;;;;;;;17.08;49.22;103064.09;5019686;28;20488;-87
2022/03/27 10:32:13;;;;;;;16.35;11.93;;;;;;;16.91;50.76;103081.91;5016753;28;20057;-85
2022/03/27 10:35:04;;;;;;;;;;;;;;;17.56;47.21;103085.22;5025292;28;20496;-83
2022/03/27 10:37:39;;;;;;;15.48;11.02;;;;;;;16.90;46.57;103064.59;5039952;28;20371;-81
2022/03/27 10:40:12;;;;;;;;;;;;;;;17.89;50.72;103079.00;5031141;28;20041;-88
2022/03/27 10:42:59;;;;;;;17.23;12.10;;;;;;;17.13;45.53;103078.00;5037934;28;19924;-88
2022/03/27 10:45:25;;;;;;;16.83;11.77;;;;;;;17.11;45.55;103046.41;5034743;28;20077;-88
2022/03/27 10:48:11;;;;;;;15.05;10.90;;;;;;;17.15;46.62;103058.66;5034249;28;20033;-87
2022/03/27 10:50:53;;;;;;;13.60;10.32;;;;;;;17.52;47.44;103073.81;5015939;28;20095;-86
2022/03/27 10:53:25;;;;;;;15.07;10.48;;;;;;;17.76;45.19;103030.47;5038414;28;20132;-86
2022/03/27 10:55:52;;;;;;;16.08;10.70;;;;;;;18.29;44.37;103051.69;5030848;28;20024;-81
2022/03/27 10:58:41;;;;;;;15.10;11.07;;;;;;;18.97;46.49;103049.75;5067905;28;20048;-87
2022/03/27 11:01:32;;;;;;;18.05;12.25;;;;;;;18.30;45.55;103052.50;5038030;28;20164;-83
2022/03/27 11:04:06;;;;;;;15.00;11.20;;;;;;;18.38;44.82;103042.16;5039454;28;20021;-87
2022/03/27 11:06:46;;;;;;;12.77;9.13;;;;;;;18.55;41.47;103033.53;5039432;28;20041;-82
2022/03/27 11:09:36;;;;;;;13.45;9.90;;;;;;;18.04;45.09;103055.00;5038459;28;20424;-85
2022/03/27 11:12:06;;;;;;;12.98;9.40;;;;;;;17.89;42.08;103033.22;5033463;28;20050;-85
2022/03/27 11:14:51;;;;;;;12.13;9.45;;;;;;;18.13;43.26;103057.53;5031944;28;20354;-84
2022/03/27 11:17:28;;;;;;;14.27;9.73;;;;;;;18.38;42.77;103047.66;5032676;28;20040;-84
2022/03/27 11:19:54;;;;;;;12.45;9.40;;;;;;;18.63;42.20;103022.31;5033365;28;20071;-86
2022/03/27 11:22:38;;;;;;;11.63;8.88;;;;;;;19.22;42.84;103041.66;5023954;28;20049;-85
2022/03/27 11:25:22;;;;;;;;;;;;;;;19.80;39.55;103038.03;5033007;28;20037;-85
2022/03/27 11:27:55;;;;;;;12.95;9.35;;;;;;;19.26;40.40;103040.16;5033080;28;19924;-85
2022/03/27 11:30:21;;;;;;;11.25;7.40;;;;;;;18.90;37.04;103036.03;5018368;28;20041;-82
2022/03/27 11:33:18;;;;;;;11.65;8.10;;;;;;;19.17;39.84;103035.97;4996910;28;20053;-85
2022/03/27 11:36:07;;;;;;;11.80;8.23;;;;;;;19.20;39.75;103030.03;5033370;28;20059;-81
2022/03/27 11:38:33;;;;;;;10.43;7.38;;;;;;;18.66;37.91;103005.41;5032315;28;20531;-83
2022/03/27 11:41:43;;;;;;;10.88;7.30;;;;;;;18.68;38.71;103007.94;5032049;28;20048;-83
2022/03/27 11:44:22;;;;;;;11.23;7.95;;;;;;;18.95;39.74;103003.25;5032090;28;20124;-84
2022/03/27 11:46:55;;;;;;;12.65;8.32;;;;;;;19.08;38.19;103020.75;5031683;28;20473;-84
2022/03/27 11:49:36;;;;;;;13.55;7.70;;;;;;;18.85;36.05;103003.69;5018585;28;20380;-81